sensor_id;sensor_type;location;lat;lon;timestamp;pressure;altitude;pressure_sealevel;temperature;humidity
35910;BME280;22004;49.120;-0.200;2023-05-20T00:01:32;102243.03;;;12.93;68.67
35910;BME280;22004;49.120;-0.200;2023-05-20T00:03:57;102243.66;;;12.87;68.95
35910;BME280;22004;49.120;-0.200;2023-05-20T00:06:22;102242.41;;;12.99;68.94
35910;BME280;22004;49.120;-0.200;2023-05-20T00:08:48;102241.97;;;12.60;69.74
35910;BME280;22004;49.120;-0.200;2023-05-20T00:11:13;102236.56;;;12.86;68.61
35910;BME280;22004;49.120;-0.200;2023-05-20T00:13:38;102233.78;;;12.70;68.91
35910;BME280;22004;49.120;-0.200;2023-05-20T00:16:04;102231.81;;;13.06;69.03
35910;BME280;22004;49.120;-0.200;2023-05-20T00:18:30;102226.72;;;13.03;68.76
35910;BME280;22004;49.120;-0.200;2023-05-20T00:20:57;102224.69;;;12.97;69.14
35910;BME280;22004;49.120;-0.200;2023-05-20T00:23:22;102216.63;;;13.05;69.13
35910;BME280;22004;49.120;-0.200;2023-05-20T00:25:48;102216.94;;;13.02;68.95
35910;BME280;22004;49.120;-0.200;2023-05-20T00:28:14;102217.78;;;13.02;69.17
35910;BME280;22004;49.120;-0.200;2023-05-20T00:30:39;102213.75;;;12.98;69.26
35910;BME280;22004;49.120;-0.200;2023-05-20T00:33:08;102213.59;;;13.00;69.29
35910;BME280;22004;49.120;-0.200;2023-05-20T00:35:33;102211.72;;;13.00;69.43
35910;BME280;22004;49.120;-0.200;2023-05-20T00:37:59;102205.47;;;12.65;70.24
35910;BME280;22004;49.120;-0.200;2023-05-20T00:40:24;102205.19;;;12.77;70.01
35910;BME280;22004;49.120;-0.200;2023-05-20T00:42:50;102201.75;;;12.66;69.40
35910;BME280;22004;49.120;-0.200;2023-05-20T00:45:15;102201.06;;;12.90;69.54
35910;BME280;22004;49.120;-0.200;2023-05-20T00:47:41;102205.28;;;12.67;69.41
35910;BME280;22004;49.120;-0.200;2023-05-20T00:50:08;102207.13;;;12.92;69.64
35910;BME280;22004;49.120;-0.200;2023-05-20T00:52:35;102206.19;;;12.76;69.76
35910;BME280;22004;49.120;-0.200;2023-05-20T00:55:01;102205.81;;;12.97;69.70
35910;BME280;22004;49.120;-0.200;2023-05-20T00:57:26;102205.78;;;12.88;69.69
35910;BME280;22004;49.120;-0.200;2023-05-20T00:59:52;102195.97;;;12.79;69.72
35910;BME280;22004;49.120;-0.200;2023-05-20T01:02:18;102202.75;;;12.91;69.91
35910;BME280;22004;49.120;-0.200;2023-05-20T01:04:44;102191.94;;;12.83;70.00
35910;BME280;22004;49.120;-0.200;2023-05-20T01:07:12;102185.66;;;12.75;69.92
35910;BME280;22004;49.120;-0.200;2023-05-20T01:09:39;102192.53;;;12.69;70.26
35910;BME280;22004;49.120;-0.200;2023-05-20T01:12:26;102195.34;;;12.67;70.21
35910;BME280;22004;49.120;-0.200;2023-05-20T01:15:00;102183.22;;;12.63;70.42
35910;BME280;22004;49.120;-0.200;2023-05-20T01:17:30;102184.38;;;12.61;70.42
35910;BME280;22004;49.120;-0.200;2023-05-20T01:19:58;102180.00;;;12.60;70.67
35910;BME280;22004;49.120;-0.200;2023-05-20T01:22:25;102171.56;;;12.55;70.83
35910;BME280;22004;49.120;-0.200;2023-05-20T01:24:51;102176.09;;;12.54;70.70
35910;BME280;22004;49.120;-0.200;2023-05-20T01:27:20;102168.53;;;12.58;70.53
35910;BME280;22004;49.120;-0.200;2023-05-20T01:29:47;102164.69;;;12.60;70.94
35910;BME280;22004;49.120;-0.200;2023-05-20T01:32:19;102160.06;;;12.53;70.47
35910;BME280;22004;49.120;-0.200;2023-05-20T01:34:48;102171.84;;;12.52;70.42
35910;BME280;22004;49.120;-0.200;2023-05-20T01:37:16;102160.44;;;12.58;70.88
35910;BME280;22004;49.120;-0.200;2023-05-20T01:39:42;102153.84;;;12.52;70.84
35910;BME280;22004;49.120;-0.200;2023-05-20T01:42:09;102156.59;;;12.60;70.61
35910;BME280;22004;49.120;-0.200;2023-05-20T01:44:34;102162.47;;;12.56;70.73
35910;BME280;22004;49.120;-0.200;2023-05-20T01:47:00;102156.78;;;12.59;70.55
35910;BME280;22004;49.120;-0.200;2023-05-20T01:49:26;102155.81;;;12.68;70.47
35910;BME280;22004;49.120;-0.200;2023-05-20T01:51:51;102159.13;;;12.62;70.33
35910;BME280;22004;49.120;-0.200;2023-05-20T01:54:16;102149.81;;;12.48;70.78
35910;BME280;22004;49.120;-0.200;2023-05-20T01:56:42;102153.81;;;12.44;70.82
35910;BME280;22004;49.120;-0.200;2023-05-20T01:59:07;102152.97;;;12.44;70.48
35910;BME280;22004;49.120;-0.200;2023-05-20T02:01:33;102152.25;;;12.41;70.84
35910;BME280;22004;49.120;-0.200;2023-05-20T02:03:58;102151.59;;;12.39;70.94
35910;BME280;22004;49.120;-0.200;2023-05-20T02:06:24;102152.97;;;12.44;70.96
35910;BME280;22004;49.120;-0.200;2023-05-20T02:08:49;102146.72;;;12.43;70.92
35910;BME280;22004;49.120;-0.200;2023-05-20T02:11:14;102138.97;;;12.40;70.98
35910;BME280;22004;49.120;-0.200;2023-05-20T02:13:40;102136.09;;;12.41;70.31
35910;BME280;22004;49.120;-0.200;2023-05-20T02:16:05;102139.41;;;12.53;71.00
35910;BME280;22004;49.120;-0.200;2023-05-20T02:18:31;102137.38;;;12.55;70.75
35910;BME280;22004;49.120;-0.200;2023-05-20T02:21:03;102140.44;;;12.60;70.84
35910;BME280;22004;49.120;-0.200;2023-05-20T02:23:30;102130.97;;;12.56;70.86
35910;BME280;22004;49.120;-0.200;2023-05-20T02:25:56;102124.63;;;12.65;70.46
35910;BME280;22004;49.120;-0.200;2023-05-20T02:28:21;102131.34;;;12.61;70.69
35910;BME280;22004;49.120;-0.200;2023-05-20T02:30:47;102126.44;;;12.57;70.81
35910;BME280;22004;49.120;-0.200;2023-05-20T02:33:12;102131.81;;;12.57;70.75
35910;BME280;22004;49.120;-0.200;2023-05-20T02:35:38;102125.06;;;12.53;70.65
35910;BME280;22004;49.120;-0.200;2023-05-20T02:38:04;102127.00;;;12.42;70.77
35910;BME280;22004;49.120;-0.200;2023-05-20T02:40:30;102124.38;;;12.51;70.76
35910;BME280;22004;49.120;-0.200;2023-05-20T02:42:55;102116.84;;;12.54;70.40
35910;BME280;22004;49.120;-0.200;2023-05-20T02:45:21;102117.63;;;12.47;70.55
35910;BME280;22004;49.120;-0.200;2023-05-20T02:47:46;102109.41;;;12.48;70.51
35910;BME280;22004;49.120;-0.200;2023-05-20T02:50:11;102110.25;;;12.49;70.33
35910;BME280;22004;49.120;-0.200;2023-05-20T02:52:37;102112.88;;;12.40;70.79
35910;BME280;22004;49.120;-0.200;2023-05-20T02:55:04;102118.56;;;12.37;70.84
35910;BME280;22004;49.120;-0.200;2023-05-20T02:57:30;102112.50;;;12.35;70.63
35910;BME280;22004;49.120;-0.200;2023-05-20T02:59:56;102119.75;;;12.35;70.74
35910;BME280;22004;49.120;-0.200;2023-05-20T03:02:21;102108.50;;;12.39;70.47
35910;BME280;22004;49.120;-0.200;2023-05-20T03:04:47;102104.44;;;12.35;70.45
35910;BME280;22004;49.120;-0.200;2023-05-20T03:07:12;102105.84;;;12.48;70.18
35910;BME280;22004;49.120;-0.200;2023-05-20T03:09:38;102097.25;;;12.44;70.30
35910;BME280;22004;49.120;-0.200;2023-05-20T03:12:04;102101.94;;;12.42;70.82
35910;BME280;22004;49.120;-0.200;2023-05-20T03:14:29;102098.72;;;12.38;70.31
35910;BME280;22004;49.120;-0.200;2023-05-20T03:16:55;102104.97;;;12.39;70.33
35910;BME280;22004;49.120;-0.200;2023-05-20T03:19:20;102099.25;;;12.42;70.43
35910;BME280;22004;49.120;-0.200;2023-05-20T03:21:46;102097.38;;;12.42;70.10
35910;BME280;22004;49.120;-0.200;2023-05-20T03:24:11;102096.91;;;12.47;70.07
35910;BME280;22004;49.120;-0.200;2023-05-20T03:26:36;102099.56;;;12.39;70.49
35910;BME280;22004;49.120;-0.200;2023-05-20T03:29:07;102093.72;;;12.44;70.16
35910;BME280;22004;49.120;-0.200;2023-05-20T03:31:33;102091.69;;;12.46;70.30
35910;BME280;22004;49.120;-0.200;2023-05-20T03:33:58;102088.09;;;12.37;70.18
35910;BME280;22004;49.120;-0.200;2023-05-20T03:36:23;102088.47;;;12.42;69.78
35910;BME280;22004;49.120;-0.200;2023-05-20T03:38:49;102093.53;;;12.45;70.05
35910;BME280;22004;49.120;-0.200;2023-05-20T03:41:14;102091.63;;;12.37;70.08
35910;BME280;22004;49.120;-0.200;2023-05-20T03:43:39;102094.56;;;12.44;69.92
35910;BME280;22004;49.120;-0.200;2023-05-20T03:46:05;102088.28;;;12.35;69.90
35910;BME280;22004;49.120;-0.200;2023-05-20T03:48:30;102092.28;;;12.31;69.93
35910;BME280;22004;49.120;-0.200;2023-05-20T03:50:56;102078.16;;;12.29;70.40
35910;BME280;22004;49.120;-0.200;2023-05-20T03:53:21;102088.56;;;12.32;70.06
35910;BME280;22004;49.120;-0.200;2023-05-20T03:55:46;102079.34;;;12.35;69.89
35910;BME280;22004;49.120;-0.200;2023-05-20T03:58:13;102075.47;;;12.37;70.06
35910;BME280;22004;49.120;-0.200;2023-05-20T04:00:39;102073.91;;;12.27;70.31
35910;BME280;22004;49.120;-0.200;2023-05-20T04:03:05;102078.75;;;12.23;70.20
35910;BME280;22004;49.120;-0.200;2023-05-20T04:05:30;102078.81;;;12.31;69.94
35910;BME280;22004;49.120;-0.200;2023-05-20T04:07:56;102075.13;;;12.32;69.96
35910;BME280;22004;49.120;-0.200;2023-05-20T04:10:22;102068.38;;;12.28;70.35
35910;BME280;22004;49.120;-0.200;2023-05-20T04:12:48;102070.91;;;12.30;70.10
35910;BME280;22004;49.120;-0.200;2023-05-20T04:15:14;102073.97;;;12.35;69.66
35910;BME280;22004;49.120;-0.200;2023-05-20T04:17:40;102073.25;;;12.33;69.65
35910;BME280;22004;49.120;-0.200;2023-05-20T04:20:06;102072.78;;;12.37;69.96
35910;BME280;22004;49.120;-0.200;2023-05-20T04:22:33;102065.34;;;12.31;69.87
35910;BME280;22004;49.120;-0.200;2023-05-20T04:24:58;102066.91;;;12.42;69.66
35910;BME280;22004;49.120;-0.200;2023-05-20T04:27:24;102063.75;;;12.47;69.49
35910;BME280;22004;49.120;-0.200;2023-05-20T04:29:50;102062.91;;;12.46;69.84
35910;BME280;22004;49.120;-0.200;2023-05-20T04:32:18;102067.44;;;12.46;69.61
35910;BME280;22004;49.120;-0.200;2023-05-20T04:34:44;102065.41;;;12.39;70.15
35910;BME280;22004;49.120;-0.200;2023-05-20T04:37:10;102062.22;;;12.44;70.01
35910;BME280;22004;49.120;-0.200;2023-05-20T04:39:35;102060.84;;;12.40;69.86
35910;BME280;22004;49.120;-0.200;2023-05-20T04:42:02;102064.19;;;12.34;69.68
35910;BME280;22004;49.120;-0.200;2023-05-20T04:44:27;102064.69;;;12.37;69.65
35910;BME280;22004;49.120;-0.200;2023-05-20T04:46:54;102070.75;;;12.31;70.18
35910;BME280;22004;49.120;-0.200;2023-05-20T04:49:20;102068.78;;;12.41;70.11
35910;BME280;22004;49.120;-0.200;2023-05-20T04:51:45;102067.63;;;12.44;69.62
35910;BME280;22004;49.120;-0.200;2023-05-20T04:54:14;102072.34;;;12.50;70.00
35910;BME280;22004;49.120;-0.200;2023-05-20T04:56:41;102070.19;;;12.54;69.82
35910;BME280;22004;49.120;-0.200;2023-05-20T04:59:06;102071.72;;;12.56;69.37
35910;BME280;22004;49.120;-0.200;2023-05-20T05:01:33;102070.19;;;12.54;69.96
35910;BME280;22004;49.120;-0.200;2023-05-20T05:03:59;102065.25;;;12.41;69.52
35910;BME280;22004;49.120;-0.200;2023-05-20T05:06:24;102068.00;;;12.57;69.52
35910;BME280;22004;49.120;-0.200;2023-05-20T05:08:49;102060.97;;;12.64;69.21
35910;BME280;22004;49.120;-0.200;2023-05-20T05:11:15;102058.78;;;12.60;69.49
35910;BME280;22004;49.120;-0.200;2023-05-20T05:13:40;102060.63;;;12.67;69.20
35910;BME280;22004;49.120;-0.200;2023-05-20T05:16:05;102056.25;;;12.66;69.48
35910;BME280;22004;49.120;-0.200;2023-05-20T05:18:31;102055.09;;;12.69;69.53
35910;BME280;22004;49.120;-0.200;2023-05-20T05:21:04;102057.19;;;12.83;69.18
35910;BME280;22004;49.120;-0.200;2023-05-20T05:23:30;102053.19;;;12.53;70.61
35910;BME280;22004;49.120;-0.200;2023-05-20T05:25:55;102058.19;;;12.90;69.28
35910;BME280;22004;49.120;-0.200;2023-05-20T05:28:21;102052.47;;;12.85;69.66
35910;BME280;22004;49.120;-0.200;2023-05-20T05:30:47;102052.63;;;12.84;69.64
35910;BME280;22004;49.120;-0.200;2023-05-20T05:33:13;102058.16;;;12.82;70.10
35910;BME280;22004;49.120;-0.200;2023-05-20T05:35:42;102062.44;;;12.93;69.39
35910;BME280;22004;49.120;-0.200;2023-05-20T05:38:08;102061.59;;;13.01;69.29
35910;BME280;22004;49.120;-0.200;2023-05-20T05:40:34;102061.44;;;12.94;69.64
35910;BME280;22004;49.120;-0.200;2023-05-20T05:43:00;102061.06;;;12.97;69.79
35910;BME280;22004;49.120;-0.200;2023-05-20T05:45:25;102065.97;;;13.02;69.98
35910;BME280;22004;49.120;-0.200;2023-05-20T05:47:50;102068.19;;;13.06;69.83
35910;BME280;22004;49.120;-0.200;2023-05-20T05:50:16;102060.84;;;13.25;68.89
35910;BME280;22004;49.120;-0.200;2023-05-20T05:52:41;102069.69;;;13.01;70.29
35910;BME280;22004;49.120;-0.200;2023-05-20T05:55:08;102058.94;;;13.09;70.01
35910;BME280;22004;49.120;-0.200;2023-05-20T05:57:33;102056.72;;;13.04;70.86
35910;BME280;22004;49.120;-0.200;2023-05-20T05:59:59;102052.97;;;13.48;69.03
35910;BME280;22004;49.120;-0.200;2023-05-20T06:02:25;102057.81;;;13.36;70.17
35910;BME280;22004;49.120;-0.200;2023-05-20T06:04:50;102057.25;;;13.16;71.45
35910;BME280;22004;49.120;-0.200;2023-05-20T06:07:16;102052.09;;;13.47;69.50
35910;BME280;22004;49.120;-0.200;2023-05-20T06:09:42;102044.84;;;13.39;70.55
35910;BME280;22004;49.120;-0.200;2023-05-20T06:12:07;102046.53;;;13.40;71.47
35910;BME280;22004;49.120;-0.200;2023-05-20T06:14:32;102045.19;;;13.61;69.91
35910;BME280;22004;49.120;-0.200;2023-05-20T06:16:58;102043.53;;;13.68;69.46
35910;BME280;22004;49.120;-0.200;2023-05-20T06:19:23;102037.44;;;13.74;70.68
35910;BME280;22004;49.120;-0.200;2023-05-20T06:21:48;102046.19;;;13.92;70.17
35910;BME280;22004;49.120;-0.200;2023-05-20T06:24:13;102042.34;;;14.90;66.58
35910;BME280;22004;49.120;-0.200;2023-05-20T06:26:39;102045.09;;;15.36;63.93
35910;BME280;22004;49.120;-0.200;2023-05-20T06:29:05;102047.94;;;15.42;63.69
35910;BME280;22004;49.120;-0.200;2023-05-20T06:31:30;102053.03;;;15.14;65.67
35910;BME280;22004;49.120;-0.200;2023-05-20T06:33:55;102039.28;;;14.93;65.67
35910;BME280;22004;49.120;-0.200;2023-05-20T06:36:21;102035.88;;;14.68;66.68
35910;BME280;22004;49.120;-0.200;2023-05-20T06:38:46;102044.94;;;15.06;66.46
35910;BME280;22004;49.120;-0.200;2023-05-20T06:41:12;102041.34;;;15.83;63.51
35910;BME280;22004;49.120;-0.200;2023-05-20T06:43:37;102036.28;;;14.48;70.90
35910;BME280;22004;49.120;-0.200;2023-05-20T06:46:04;102029.31;;;13.99;69.63
35910;BME280;22004;49.120;-0.200;2023-05-20T06:48:29;102035.91;;;14.52;67.96
35910;BME280;22004;49.120;-0.200;2023-05-20T06:50:55;102032.56;;;14.50;70.14
35910;BME280;22004;49.120;-0.200;2023-05-20T06:53:21;102028.28;;;15.71;67.96
35910;BME280;22004;49.120;-0.200;2023-05-20T06:55:46;102025.31;;;15.58;66.58
35910;BME280;22004;49.120;-0.200;2023-05-20T06:58:11;102018.88;;;15.13;67.22
35910;BME280;22004;49.120;-0.200;2023-05-20T07:00:37;102028.94;;;14.96;66.97
35910;BME280;22004;49.120;-0.200;2023-05-20T07:03:03;102026.88;;;14.76;69.71
35910;BME280;22004;49.120;-0.200;2023-05-20T07:05:29;102025.94;;;14.60;68.95
35910;BME280;22004;49.120;-0.200;2023-05-20T07:07:55;102034.25;;;14.42;72.46
35910;BME280;22004;49.120;-0.200;2023-05-20T07:10:21;102024.34;;;14.74;68.54
35910;BME280;22004;49.120;-0.200;2023-05-20T07:12:46;102025.84;;;14.77;69.13
35910;BME280;22004;49.120;-0.200;2023-05-20T07:15:11;102017.25;;;14.73;69.65
35910;BME280;22004;49.120;-0.200;2023-05-20T07:17:37;102016.31;;;14.58;69.40
35910;BME280;22004;49.120;-0.200;2023-05-20T07:20:02;102016.13;;;14.67;69.72
35910;BME280;22004;49.120;-0.200;2023-05-20T07:22:28;102017.72;;;14.77;68.69
35910;BME280;22004;49.120;-0.200;2023-05-20T07:24:54;102021.94;;;15.10;69.80
35910;BME280;22004;49.120;-0.200;2023-05-20T07:27:19;102031.94;;;15.33;68.08
35910;BME280;22004;49.120;-0.200;2023-05-20T07:29:44;102026.03;;;15.29;67.53
35910;BME280;22004;49.120;-0.200;2023-05-20T07:32:10;102022.25;;;15.38;70.41
35910;BME280;22004;49.120;-0.200;2023-05-20T07:34:36;102023.84;;;16.08;66.39
35910;BME280;22004;49.120;-0.200;2023-05-20T07:37:01;102021.31;;;15.92;66.38
35910;BME280;22004;49.120;-0.200;2023-05-20T07:39:28;102023.44;;;15.36;68.77
35910;BME280;22004;49.120;-0.200;2023-05-20T07:41:53;102023.56;;;16.18;65.98
35910;BME280;22004;49.120;-0.200;2023-05-20T07:44:18;102017.81;;;15.22;67.22
35910;BME280;22004;49.120;-0.200;2023-05-20T07:46:46;102010.50;;;16.21;64.55
35910;BME280;22004;49.120;-0.200;2023-05-20T07:49:12;102011.00;;;16.91;64.37
35910;BME280;22004;49.120;-0.200;2023-05-20T07:51:37;102004.19;;;16.50;64.23
35910;BME280;22004;49.120;-0.200;2023-05-20T07:54:03;102015.78;;;16.74;64.26
35910;BME280;22004;49.120;-0.200;2023-05-20T07:56:28;102006.78;;;17.10;61.29
35910;BME280;22004;49.120;-0.200;2023-05-20T07:58:56;102001.09;;;17.97;61.25
35910;BME280;22004;49.120;-0.200;2023-05-20T08:01:25;102002.16;;;18.78;58.37
35910;BME280;22004;49.120;-0.200;2023-05-20T08:03:51;101986.25;;;18.82;58.19
35910;BME280;22004;49.120;-0.200;2023-05-20T08:06:17;101985.34;;;17.86;61.41
35910;BME280;22004;49.120;-0.200;2023-05-20T08:08:45;101987.41;;;17.34;62.72
35910;BME280;22004;49.120;-0.200;2023-05-20T08:11:10;101982.03;;;16.98;63.29
35910;BME280;22004;49.120;-0.200;2023-05-20T08:13:35;101986.00;;;16.29;64.43
35910;BME280;22004;49.120;-0.200;2023-05-20T08:16:01;101986.28;;;16.20;66.67
35910;BME280;22004;49.120;-0.200;2023-05-20T08:18:31;101976.63;;;16.98;63.91
35910;BME280;22004;49.120;-0.200;2023-05-20T08:20:57;101983.47;;;18.21;61.91
35910;BME280;22004;49.120;-0.200;2023-05-20T08:23:23;101971.09;;;16.55;64.73
35910;BME280;22004;49.120;-0.200;2023-05-20T08:25:49;101975.06;;;17.31;64.29
35910;BME280;22004;49.120;-0.200;2023-05-20T08:28:14;101986.94;;;17.09;63.57
35910;BME280;22004;49.120;-0.200;2023-05-20T08:30:40;101986.38;;;17.14;63.28
35910;BME280;22004;49.120;-0.200;2023-05-20T08:33:05;101993.97;;;16.82;65.82
35910;BME280;22004;49.120;-0.200;2023-05-20T08:35:31;101984.78;;;16.32;65.32
35910;BME280;22004;49.120;-0.200;2023-05-20T08:37:56;101979.25;;;15.66;67.61
35910;BME280;22004;49.120;-0.200;2023-05-20T08:40:22;101994.00;;;15.79;67.69
35910;BME280;22004;49.120;-0.200;2023-05-20T08:42:48;101986.81;;;16.15;67.91
35910;BME280;22004;49.120;-0.200;2023-05-20T08:45:17;101984.69;;;17.13;63.54
35910;BME280;22004;49.120;-0.200;2023-05-20T08:47:43;101979.31;;;17.19;63.81
35910;BME280;22004;49.120;-0.200;2023-05-20T08:50:10;101985.53;;;16.92;64.56
35910;BME280;22004;49.120;-0.200;2023-05-20T08:52:37;101977.84;;;17.38;64.26
35910;BME280;22004;49.120;-0.200;2023-05-20T08:55:07;101984.47;;;16.71;66.51
35910;BME280;22004;49.120;-0.200;2023-05-20T08:57:34;101982.50;;;18.35;63.81
35910;BME280;22004;49.120;-0.200;2023-05-20T09:00:01;101977.59;;;18.17;61.49
35910;BME280;22004;49.120;-0.200;2023-05-20T09:02:36;101973.41;;;17.58;62.52
35910;BME280;22004;49.120;-0.200;2023-05-20T09:05:02;101976.00;;;17.67;62.55
35910;BME280;22004;49.120;-0.200;2023-05-20T09:07:29;101972.41;;;18.22;62.44
35910;BME280;22004;49.120;-0.200;2023-05-20T09:09:55;101976.31;;;17.78;62.62
35910;BME280;22004;49.120;-0.200;2023-05-20T09:12:20;101970.34;;;18.72;59.76
35910;BME280;22004;49.120;-0.200;2023-05-20T09:14:46;101969.56;;;18.44;60.95
35910;BME280;22004;49.120;-0.200;2023-05-20T09:17:12;101971.94;;;18.12;62.05
35910;BME280;22004;49.120;-0.200;2023-05-20T09:19:37;101976.28;;;17.29;63.43
35910;BME280;22004;49.120;-0.200;2023-05-20T09:22:03;101970.94;;;17.14;63.65
35910;BME280;22004;49.120;-0.200;2023-05-20T09:24:29;101972.28;;;17.25;63.59
35910;BME280;22004;49.120;-0.200;2023-05-20T09:26:55;101966.09;;;17.80;62.53
35910;BME280;22004;49.120;-0.200;2023-05-20T09:29:22;101967.56;;;17.83;62.12
35910;BME280;22004;49.120;-0.200;2023-05-20T09:31:48;101962.41;;;17.95;62.07
35910;BME280;22004;49.120;-0.200;2023-05-20T09:34:14;101963.94;;;17.48;62.81
35910;BME280;22004;49.120;-0.200;2023-05-20T09:36:42;101947.44;;;17.21;64.08
35910;BME280;22004;49.120;-0.200;2023-05-20T09:39:12;101960.16;;;17.70;62.87
35910;BME280;22004;49.120;-0.200;2023-05-20T09:42:04;101958.47;;;17.41;63.33
35910;BME280;22004;49.120;-0.200;2023-05-20T09:44:28;101956.16;;;17.45;63.90
35910;BME280;22004;49.120;-0.200;2023-05-20T09:46:55;101964.72;;;17.70;62.80
35910;BME280;22004;49.120;-0.200;2023-05-20T09:49:21;101955.47;;;17.64;62.98
35910;BME280;22004;49.120;-0.200;2023-05-20T09:51:48;101952.00;;;16.99;64.52
35910;BME280;22004;49.120;-0.200;2023-05-20T09:54:17;101952.91;;;16.70;65.68
35910;BME280;22004;49.120;-0.200;2023-05-20T09:56:43;101946.91;;;16.90;67.40
35910;BME280;22004;49.120;-0.200;2023-05-20T09:59:10;101948.13;;;16.51;66.15
35910;BME280;22004;49.120;-0.200;2023-05-20T10:01:36;101946.66;;;17.06;66.49
35910;BME280;22004;49.120;-0.200;2023-05-20T10:04:04;101950.69;;;17.38;65.06
35910;BME280;22004;49.120;-0.200;2023-05-20T10:12:06;101942.59;;;17.45;63.76
35910;BME280;22004;49.120;-0.200;2023-05-20T10:14:45;101946.78;;;18.03;62.32
35910;BME280;22004;49.120;-0.200;2023-05-20T10:19:59;101928.31;;;18.33;62.19
35910;BME280;22004;49.120;-0.200;2023-05-20T10:22:27;101945.59;;;18.67;60.68
35910;BME280;22004;49.120;-0.200;2023-05-20T10:25:02;101938.41;;;18.46;61.18
35910;BME280;22004;49.120;-0.200;2023-05-20T10:27:44;101933.44;;;18.63;61.84
35910;BME280;22004;49.120;-0.200;2023-05-20T10:30:17;101927.50;;;19.41;62.13
35910;BME280;22004;49.120;-0.200;2023-05-20T10:32:57;101941.81;;;18.14;62.45
35910;BME280;22004;49.120;-0.200;2023-05-20T10:35:25;101929.53;;;18.24;62.50
35910;BME280;22004;49.120;-0.200;2023-05-20T10:37:52;101934.56;;;18.27;61.83
35910;BME280;22004;49.120;-0.200;2023-05-20T10:40:20;101930.13;;;18.20;61.15
35910;BME280;22004;49.120;-0.200;2023-05-20T10:42:46;101924.22;;;18.64;60.97
35910;BME280;22004;49.120;-0.200;2023-05-20T10:45:24;101923.00;;;18.12;61.88
35910;BME280;22004;49.120;-0.200;2023-05-20T10:47:56;101925.22;;;17.67;62.59
35910;BME280;22004;49.120;-0.200;2023-05-20T10:50:33;101907.47;;;17.99;63.32
35910;BME280;22004;49.120;-0.200;2023-05-20T10:53:06;101913.19;;;18.18;62.43
35910;BME280;22004;49.120;-0.200;2023-05-20T10:55:37;101907.53;;;18.13;62.84
35910;BME280;22004;49.120;-0.200;2023-05-20T10:58:03;101907.63;;;18.39;61.43
35910;BME280;22004;49.120;-0.200;2023-05-20T11:00:29;101899.53;;;17.98;62.12
35910;BME280;22004;49.120;-0.200;2023-05-20T11:02:55;101899.69;;;18.31;61.57
35910;BME280;22004;49.120;-0.200;2023-05-20T11:05:20;101906.06;;;18.10;61.62
35910;BME280;22004;49.120;-0.200;2023-05-20T11:07:46;101898.84;;;17.89;62.50
35910;BME280;22004;49.120;-0.200;2023-05-20T11:10:11;101904.59;;;17.73;63.01
35910;BME280;22004;49.120;-0.200;2023-05-20T11:12:38;101901.50;;;18.72;62.81
35910;BME280;22004;49.120;-0.200;2023-05-20T11:15:03;101903.81;;;19.41;60.32
35910;BME280;22004;49.120;-0.200;2023-05-20T11:17:29;101891.69;;;18.97;62.09
35910;BME280;22004;49.120;-0.200;2023-05-20T11:19:55;101901.34;;;18.32;61.35
35910;BME280;22004;49.120;-0.200;2023-05-20T11:22:20;101898.16;;;18.22;62.47
35910;BME280;22004;49.120;-0.200;2023-05-20T11:24:47;101898.06;;;18.50;61.17
35910;BME280;22004;49.120;-0.200;2023-05-20T11:27:12;101891.22;;;18.13;62.34
35910;BME280;22004;49.120;-0.200;2023-05-20T11:29:38;101897.84;;;17.97;62.31
35910;BME280;22004;49.120;-0.200;2023-05-20T11:32:06;101892.94;;;18.20;62.09
35910;BME280;22004;49.120;-0.200;2023-05-20T11:34:36;101898.09;;;18.08;62.62
35910;BME280;22004;49.120;-0.200;2023-05-20T11:37:06;101891.69;;;18.91;62.02
35910;BME280;22004;49.120;-0.200;2023-05-20T11:39:32;101891.03;;;18.75;61.28
35910;BME280;22004;49.120;-0.200;2023-05-20T11:41:58;101881.22;;;18.81;61.04
35910;BME280;22004;49.120;-0.200;2023-05-20T11:44:23;101886.09;;;18.44;63.22
35910;BME280;22004;49.120;-0.200;2023-05-20T11:46:49;101891.34;;;18.46;62.88
35910;BME280;22004;49.120;-0.200;2023-05-20T11:49:15;101894.38;;;17.75;63.95
35910;BME280;22004;49.120;-0.200;2023-05-20T11:51:42;101884.94;;;17.71;64.69
35910;BME280;22004;49.120;-0.200;2023-05-20T11:54:08;101887.56;;;17.86;64.26
35910;BME280;22004;49.120;-0.200;2023-05-20T11:56:38;101881.94;;;17.03;65.72
35910;BME280;22004;49.120;-0.200;2023-05-20T11:59:06;101886.47;;;17.52;64.88
35910;BME280;22004;49.120;-0.200;2023-05-20T12:01:34;101883.34;;;17.55;64.31
35910;BME280;22004;49.120;-0.200;2023-05-20T12:04:10;101874.53;;;18.16;63.81
35910;BME280;22004;49.120;-0.200;2023-05-20T12:06:37;101880.47;;;17.91;64.25
35910;BME280;22004;49.120;-0.200;2023-05-20T12:09:05;101879.41;;;17.57;63.65
35910;BME280;22004;49.120;-0.200;2023-05-20T12:11:38;101871.06;;;17.59;64.07
35910;BME280;22004;49.120;-0.200;2023-05-20T12:14:05;101872.75;;;18.56;63.50
35910;BME280;22004;49.120;-0.200;2023-05-20T12:16:32;101867.50;;;17.87;63.44
35910;BME280;22004;49.120;-0.200;2023-05-20T12:18:58;101872.00;;;18.14;63.03
35910;BME280;22004;49.120;-0.200;2023-05-20T12:21:23;101871.25;;;17.57;64.02
35910;BME280;22004;49.120;-0.200;2023-05-20T12:23:49;101866.38;;;18.16;63.23
35910;BME280;22004;49.120;-0.200;2023-05-20T12:26:14;101856.91;;;18.73;62.74
35910;BME280;22004;49.120;-0.200;2023-05-20T12:28:40;101857.34;;;19.23;63.13
35910;BME280;22004;49.120;-0.200;2023-05-20T12:31:05;101857.34;;;18.83;61.17
35910;BME280;22004;49.120;-0.200;2023-05-20T12:33:31;101865.09;;;18.12;62.89
35910;BME280;22004;49.120;-0.200;2023-05-20T12:35:57;101859.66;;;18.12;62.46
35910;BME280;22004;49.120;-0.200;2023-05-20T12:38:22;101853.91;;;18.54;61.77
35910;BME280;22004;49.120;-0.200;2023-05-20T12:40:47;101859.53;;;18.40;62.40
35910;BME280;22004;49.120;-0.200;2023-05-20T12:43:13;101857.25;;;17.89;63.18
35910;BME280;22004;49.120;-0.200;2023-05-20T12:45:38;101848.03;;;18.44;61.98